Toksook Bay, Alaska
Current Conditions -  °F | °C
As of 11:56 AM on Saturday 22 Nov 2014 (Local Time) from PAOO Reporting Station
Clear Clear  
Wind Chill:   Ceiling: Unl
Heat Index: 21°   Visibility: 10mi
Dew Point: 10°   Wind: 16mph
Humidity: 63%   Direction: 340°NNW
Pressure: 29.13"   Gusts: 20mph
Location:  60.53°N, 165.1°W
Report Text: PAOO 222056Z AUTO 34014G17KT 10SM CLR M06/M12 A2913 RMK AO2 TSNO 51019 T10611122 SLP867 $
Loading
Personal Weather Stations






























Interactive Weather Map New forecast layout! Learn more

10-Day Weather Forecast

Advertisements
Track Severe Weather on mobile